Weather at Forestville Airport

Public forecast

Using degrees Celsius for public forecast. Weather courtesy of forecast.io.

Closest aviation weather report (METAR) to Forestville Airport

Closest report is Mont Joli Airport, 36.2 nm (67.0 km) ESE. Retrieved 2020/11/24 00:00 UTC (9 minutes ago):

CYYY 240000Z 28007KT 3/4SM R06/4500VP6000FT/D -SN VV004 M00/M00 A2960 RMK SN8 /S04/ SLP028

Closest aviation forecast (TAF) to Forestville Airport

Closest forecast is Mont Joli Airport, 36.2 nm (67.0 km) ESE. Retrieved 2020/11/23 20:00 UTC (4 hours ago):

TAF CYYY 231938Z 2320/2408 04007KT P6SM -RASN FEW015 OVC040 TEMPO 2320/2404 1SM -SN OVC005 BECMG 2402/2404 31020G30KT FM240400 31020G30KT P6SM SCT009 BKN025 TEMPO 2404/2408 4SM -SHSN BKN009 BKN025 RMK NXT FCST BY 240200Z